sensor_id;sensor_type;location;lat;lon;timestamp;temperature;humidity
22827;DHT22;11580;52.562;13.418;2023-06-24T00:00:12;21.20;56.80
22827;DHT22;11580;52.562;13.418;2023-06-24T00:02:45;21.20;56.70
22827;DHT22;11580;52.562;13.418;2023-06-24T00:05:13;21.20;57.30
22827;DHT22;11580;52.562;13.418;2023-06-24T00:07:40;21.20;56.70
22827;DHT22;11580;52.562;13.418;2023-06-24T00:10:11;21.20;56.60
22827;DHT22;11580;52.562;13.418;2023-06-24T00:12:38;21.10;57.10
22827;DHT22;11580;52.562;13.418;2023-06-24T00:15:07;21.10;56.40
22827;DHT22;11580;52.562;13.418;2023-06-24T00:17:35;21.10;57.00
22827;DHT22;11580;52.562;13.418;2023-06-24T00:20:05;21.10;56.90
22827;DHT22;11580;52.562;13.418;2023-06-24T00:22:37;21.00;55.80
22827;DHT22;11580;52.562;13.418;2023-06-24T00:25:09;21.00;55.70
22827;DHT22;11580;52.562;13.418;2023-06-24T00:27:37;21.00;55.50
22827;DHT22;11580;52.562;13.418;2023-06-24T00:30:05;20.90;55.20
22827;DHT22;11580;52.562;13.418;2023-06-24T00:32:34;20.90;55.10
22827;DHT22;11580;52.562;13.418;2023-06-24T00:35:03;20.90;55.70
22827;DHT22;11580;52.562;13.418;2023-06-24T00:37:31;20.80;54.90
22827;DHT22;11580;52.562;13.418;2023-06-24T00:39:58;20.70;54.80
22827;DHT22;11580;52.562;13.418;2023-06-24T00:42:26;20.70;54.70
22827;DHT22;11580;52.562;13.418;2023-06-24T00:44:53;20.60;55.30
22827;DHT22;11580;52.562;13.418;2023-06-24T00:47:22;20.50;55.20
22827;DHT22;11580;52.562;13.418;2023-06-24T00:49:50;20.50;55.30
22827;DHT22;11580;52.562;13.418;2023-06-24T00:52:18;20.40;55.30
22827;DHT22;11580;52.562;13.418;2023-06-24T00:54:46;20.40;54.70
22827;DHT22;11580;52.562;13.418;2023-06-24T00:57:13;20.40;54.70
22827;DHT22;11580;52.562;13.418;2023-06-24T00:59:41;20.30;54.70
22827;DHT22;11580;52.562;13.418;2023-06-24T01:02:11;20.30;54.80
22827;DHT22;11580;52.562;13.418;2023-06-24T01:04:39;20.20;55.60
22827;DHT22;11580;52.562;13.418;2023-06-24T01:07:06;20.20;55.00
22827;DHT22;11580;52.562;13.418;2023-06-24T01:09:37;20.20;55.00
22827;DHT22;11580;52.562;13.418;2023-06-24T01:12:05;20.10;54.90
22827;DHT22;11580;52.562;13.418;2023-06-24T01:14:34;20.10;54.90
22827;DHT22;11580;52.562;13.418;2023-06-24T01:17:06;20.10;54.90
22827;DHT22;11580;52.562;13.418;2023-06-24T01:19:58;20.00;54.80
22827;DHT22;11580;52.562;13.418;2023-06-24T01:23:10;20.00;55.30
22827;DHT22;11580;52.562;13.418;2023-06-24T01:26:05;20.00;55.20
22827;DHT22;11580;52.562;13.418;2023-06-24T01:29:09;20.00;55.60
22827;DHT22;11580;52.562;13.418;2023-06-24T01:32:07;19.90;54.70
22827;DHT22;11580;52.562;13.418;2023-06-24T01:34:42;19.90;54.70
22827;DHT22;11580;52.562;13.418;2023-06-24T01:37:16;19.80;55.30
22827;DHT22;11580;52.562;13.418;2023-06-24T01:39:50;19.80;55.30
22827;DHT22;11580;52.562;13.418;2023-06-24T01:42:22;19.80;54.60
22827;DHT22;11580;52.562;13.418;2023-06-24T01:44:51;19.70;54.50
22827;DHT22;11580;52.562;13.418;2023-06-24T01:47:24;19.70;54.50
22827;DHT22;11580;52.562;13.418;2023-06-24T01:49:58;19.70;54.50
22827;DHT22;11580;52.562;13.418;2023-06-24T01:52:29;19.60;55.10
22827;DHT22;11580;52.562;13.418;2023-06-24T01:54:59;19.60;55.10
22827;DHT22;11580;52.562;13.418;2023-06-24T01:57:29;19.60;54.40
22827;DHT22;11580;52.562;13.418;2023-06-24T02:00:01;19.60;54.50
22827;DHT22;11580;52.562;13.418;2023-06-24T02:02:50;19.50;54.40
22827;DHT22;11580;52.562;13.418;2023-06-24T02:05:18;19.50;54.40
22827;DHT22;11580;52.562;13.418;2023-06-24T02:07:49;19.50;54.40
22827;DHT22;11580;52.562;13.418;2023-06-24T02:10:19;19.50;54.40
22827;DHT22;11580;52.562;13.418;2023-06-24T02:12:49;19.40;54.30
22827;DHT22;11580;52.562;13.418;2023-06-24T02:15:19;19.40;54.60
22827;DHT22;11580;52.562;13.418;2023-06-24T02:17:51;19.40;54.60
22827;DHT22;11580;52.562;13.418;2023-06-24T02:20:23;19.40;54.90
22827;DHT22;11580;52.562;13.418;2023-06-24T02:22:54;19.40;55.10
22827;DHT22;11580;52.562;13.418;2023-06-24T02:25:24;19.40;55.30
22827;DHT22;11580;52.562;13.418;2023-06-24T02:27:53;19.40;55.30
22827;DHT22;11580;52.562;13.418;2023-06-24T02:30:22;19.40;55.40
22827;DHT22;11580;52.562;13.418;2023-06-24T02:32:53;19.40;55.40
22827;DHT22;11580;52.562;13.418;2023-06-24T02:35:21;19.40;55.40
22827;DHT22;11580;52.562;13.418;2023-06-24T02:37:48;19.40;55.30
22827;DHT22;11580;52.562;13.418;2023-06-24T02:40:16;19.40;55.10
22827;DHT22;11580;52.562;13.418;2023-06-24T02:42:43;19.50;55.00
22827;DHT22;11580;52.562;13.418;2023-06-24T02:45:11;19.40;54.70
22827;DHT22;11580;52.562;13.418;2023-06-24T02:47:40;19.40;54.50
22827;DHT22;11580;52.562;13.418;2023-06-24T02:50:12;19.40;54.40
22827;DHT22;11580;52.562;13.418;2023-06-24T02:52:42;19.40;54.40
22827;DHT22;11580;52.562;13.418;2023-06-24T02:55:13;19.30;54.50
22827;DHT22;11580;52.562;13.418;2023-06-24T02:58:03;19.30;54.50
22827;DHT22;11580;52.562;13.418;2023-06-24T03:00:33;19.30;54.50
22827;DHT22;11580;52.562;13.418;2023-06-24T03:03:10;19.30;54.80
22827;DHT22;11580;52.562;13.418;2023-06-24T03:05:48;19.30;55.90
22827;DHT22;11580;52.562;13.418;2023-06-24T03:08:17;19.30;56.20
22827;DHT22;11580;52.562;13.418;2023-06-24T03:10:47;19.30;56.20
22827;DHT22;11580;52.562;13.418;2023-06-24T03:13:19;19.30;57.90
22827;DHT22;11580;52.562;13.418;2023-06-24T03:15:52;19.40;58.10
22827;DHT22;11580;52.562;13.418;2023-06-24T03:18:19;19.50;58.80
22827;DHT22;11580;52.562;13.418;2023-06-24T03:20:49;19.60;59.50
22827;DHT22;11580;52.562;13.418;2023-06-24T03:23:21;19.80;60.00
22827;DHT22;11580;52.562;13.418;2023-06-24T03:25:48;19.90;59.60
22827;DHT22;11580;52.562;13.418;2023-06-24T03:28:16;20.00;59.20
22827;DHT22;11580;52.562;13.418;2023-06-24T03:30:52;20.10;57.60
22827;DHT22;11580;52.562;13.418;2023-06-24T03:33:20;20.10;56.80
22827;DHT22;11580;52.562;13.418;2023-06-24T03:35:49;20.20;56.50
22827;DHT22;11580;52.562;13.418;2023-06-24T03:38:19;20.10;55.90
22827;DHT22;11580;52.562;13.418;2023-06-24T03:40:48;20.10;55.70
22827;DHT22;11580;52.562;13.418;2023-06-24T03:43:15;20.10;55.70
22827;DHT22;11580;52.562;13.418;2023-06-24T03:45:42;20.10;55.70
22827;DHT22;11580;52.562;13.418;2023-06-24T03:48:10;20.10;55.70
22827;DHT22;11580;52.562;13.418;2023-06-24T03:50:38;20.10;56.30
22827;DHT22;11580;52.562;13.418;2023-06-24T03:53:07;20.00;55.60
22827;DHT22;11580;52.562;13.418;2023-06-24T03:55:34;20.00;55.30
22827;DHT22;11580;52.562;13.418;2023-06-24T03:58:02;20.00;55.30
22827;DHT22;11580;52.562;13.418;2023-06-24T04:00:29;19.90;55.60
22827;DHT22;11580;52.562;13.418;2023-06-24T04:02:56;19.90;56.60
22827;DHT22;11580;52.562;13.418;2023-06-24T04:05:26;20.00;58.10
22827;DHT22;11580;52.562;13.418;2023-06-24T04:07:54;20.10;60.80
22827;DHT22;11580;52.562;13.418;2023-06-24T04:10:23;20.30;63.80
22827;DHT22;11580;52.562;13.418;2023-06-24T04:12:50;20.40;63.10
22827;DHT22;11580;52.562;13.418;2023-06-24T04:15:18;20.60;61.30
22827;DHT22;11580;52.562;13.418;2023-06-24T04:17:47;20.80;59.50
22827;DHT22;11580;52.562;13.418;2023-06-24T04:20:14;20.80;58.40
22827;DHT22;11580;52.562;13.418;2023-06-24T04:22:42;20.90;57.80
22827;DHT22;11580;52.562;13.418;2023-06-24T04:25:10;20.90;57.30
22827;DHT22;11580;52.562;13.418;2023-06-24T04:27:38;20.90;56.90
22827;DHT22;11580;52.562;13.418;2023-06-24T04:30:08;20.90;59.60
22827;DHT22;11580;52.562;13.418;2023-06-24T04:32:36;21.00;62.90
22827;DHT22;11580;52.562;13.418;2023-06-24T04:35:04;21.20;65.00
22827;DHT22;11580;52.562;13.418;2023-06-24T04:37:33;21.40;67.30
22827;DHT22;11580;52.562;13.418;2023-06-24T04:40:00;21.80;68.00
22827;DHT22;11580;52.562;13.418;2023-06-24T04:42:28;22.10;69.00
22827;DHT22;11580;52.562;13.418;2023-06-24T04:44:57;22.40;70.10
22827;DHT22;11580;52.562;13.418;2023-06-24T04:47:24;22.90;70.30
22827;DHT22;11580;52.562;13.418;2023-06-24T04:49:51;23.30;70.80
22827;DHT22;11580;52.562;13.418;2023-06-24T04:52:18;23.80;70.50
22827;DHT22;11580;52.562;13.418;2023-06-24T04:54:45;24.20;68.70
22827;DHT22;11580;52.562;13.418;2023-06-24T04:57:25;24.70;66.90
22827;DHT22;11580;52.562;13.418;2023-06-24T04:59:54;25.00;60.70
22827;DHT22;11580;52.562;13.418;2023-06-24T05:02:23;25.30;59.30
22827;DHT22;11580;52.562;13.418;2023-06-24T05:04:52;25.40;57.40
22827;DHT22;11580;52.562;13.418;2023-06-24T05:07:19;25.60;57.50
22827;DHT22;11580;52.562;13.418;2023-06-24T05:09:47;25.80;57.90
22827;DHT22;11580;52.562;13.418;2023-06-24T05:12:15;25.90;57.00
22827;DHT22;11580;52.562;13.418;2023-06-24T05:14:42;26.10;55.30
22827;DHT22;11580;52.562;13.418;2023-06-24T05:17:09;26.30;54.20
22827;DHT22;11580;52.562;13.418;2023-06-24T05:19:38;26.40;53.70
22827;DHT22;11580;52.562;13.418;2023-06-24T05:22:05;26.50;52.10
22827;DHT22;11580;52.562;13.418;2023-06-24T05:24:33;26.60;52.10
22827;DHT22;11580;52.562;13.418;2023-06-24T05:27:04;26.60;52.20
22827;DHT22;11580;52.562;13.418;2023-06-24T05:29:32;26.60;48.60
22827;DHT22;11580;52.562;13.418;2023-06-24T05:31:59;26.60;50.40
22827;DHT22;11580;52.562;13.418;2023-06-24T05:34:29;26.50;49.80
22827;DHT22;11580;52.562;13.418;2023-06-24T05:36:57;26.30;49.60
22827;DHT22;11580;52.562;13.418;2023-06-24T05:39:24;26.10;48.20
22827;DHT22;11580;52.562;13.418;2023-06-24T05:41:52;25.90;48.90
22827;DHT22;11580;52.562;13.418;2023-06-24T05:44:20;25.70;49.40
22827;DHT22;11580;52.562;13.418;2023-06-24T05:46:48;25.40;48.80
22827;DHT22;11580;52.562;13.418;2023-06-24T05:49:15;25.30;49.60
22827;DHT22;11580;52.562;13.418;2023-06-24T05:51:42;25.00;49.50
22827;DHT22;11580;52.562;13.418;2023-06-24T05:54:11;24.80;49.60
22827;DHT22;11580;52.562;13.418;2023-06-24T05:56:38;24.60;49.00
22827;DHT22;11580;52.562;13.418;2023-06-24T05:59:05;24.40;50.00
22827;DHT22;11580;52.562;13.418;2023-06-24T06:01:33;24.30;50.30
22827;DHT22;11580;52.562;13.418;2023-06-24T06:04:00;24.20;50.40
22827;DHT22;11580;52.562;13.418;2023-06-24T06:06:27;24.10;51.20
22827;DHT22;11580;52.562;13.418;2023-06-24T06:08:54;23.90;50.20
22827;DHT22;11580;52.562;13.418;2023-06-24T06:11:24;23.80;50.40
22827;DHT22;11580;52.562;13.418;2023-06-24T06:13:51;23.70;49.60
22827;DHT22;11580;52.562;13.418;2023-06-24T06:16:19;23.50;50.30
22827;DHT22;11580;52.562;13.418;2023-06-24T06:18:46;23.40;50.50
22827;DHT22;11580;52.562;13.418;2023-06-24T06:21:13;23.30;50.80
22827;DHT22;11580;52.562;13.418;2023-06-24T06:23:40;23.20;50.70
22827;DHT22;11580;52.562;13.418;2023-06-24T06:26:07;23.10;50.90
22827;DHT22;11580;52.562;13.418;2023-06-24T06:28:36;23.00;51.20
22827;DHT22;11580;52.562;13.418;2023-06-24T06:31:03;22.90;50.60
22827;DHT22;11580;52.562;13.418;2023-06-24T06:33:30;22.80;51.30
22827;DHT22;11580;52.562;13.418;2023-06-24T06:35:57;22.80;51.30
22827;DHT22;11580;52.562;13.418;2023-06-24T06:38:25;22.70;51.90
22827;DHT22;11580;52.562;13.418;2023-06-24T06:40:52;22.70;52.70
22827;DHT22;11580;52.562;13.418;2023-06-24T06:43:19;22.70;52.30
22827;DHT22;11580;52.562;13.418;2023-06-24T06:45:49;22.70;52.50
22827;DHT22;11580;52.562;13.418;2023-06-24T06:48:16;22.70;51.80
22827;DHT22;11580;52.562;13.418;2023-06-24T06:50:44;22.70;53.90
22827;DHT22;11580;52.562;13.418;2023-06-24T06:53:11;22.70;53.30
22827;DHT22;11580;52.562;13.418;2023-06-24T06:55:38;22.80;53.40
22827;DHT22;11580;52.562;13.418;2023-06-24T06:58:08;22.90;53.60
22827;DHT22;11580;52.562;13.418;2023-06-24T07:00:35;23.00;53.50
22827;DHT22;11580;52.562;13.418;2023-06-24T07:03:04;23.10;53.60
22827;DHT22;11580;52.562;13.418;2023-06-24T07:05:31;23.20;52.90
22827;DHT22;11580;52.562;13.418;2023-06-24T07:07:58;23.30;53.50
22827;DHT22;11580;52.562;13.418;2023-06-24T07:10:25;23.40;53.10
22827;DHT22;11580;52.562;13.418;2023-06-24T07:12:52;23.50;52.50
22827;DHT22;11580;52.562;13.418;2023-06-24T07:15:24;23.60;53.10
22827;DHT22;11580;52.562;13.418;2023-06-24T07:17:52;23.60;52.00
22827;DHT22;11580;52.562;13.418;2023-06-24T07:20:21;23.60;52.70
22827;DHT22;11580;52.562;13.418;2023-06-24T07:22:49;23.70;50.90
22827;DHT22;11580;52.562;13.418;2023-06-24T07:25:16;23.70;52.00
22827;DHT22;11580;52.562;13.418;2023-06-24T07:27:43;23.80;52.10
22827;DHT22;11580;52.562;13.418;2023-06-24T07:30:10;23.90;52.20
22827;DHT22;11580;52.562;13.418;2023-06-24T07:32:38;23.90;51.20
22827;DHT22;11580;52.562;13.418;2023-06-24T07:35:06;24.00;51.80
22827;DHT22;11580;52.562;13.418;2023-06-24T07:37:35;24.00;50.50
22827;DHT22;11580;52.562;13.418;2023-06-24T07:40:05;24.10;49.20
22827;DHT22;11580;52.562;13.418;2023-06-24T07:42:34;24.10;49.80
22827;DHT22;11580;52.562;13.418;2023-06-24T07:45:01;24.10;50.90
22827;DHT22;11580;52.562;13.418;2023-06-24T07:47:29;24.10;50.10
22827;DHT22;11580;52.562;13.418;2023-06-24T07:49:57;24.20;49.60
22827;DHT22;11580;52.562;13.418;2023-06-24T07:52:24;24.20;49.60
22827;DHT22;11580;52.562;13.418;2023-06-24T07:54:53;24.20;48.70
22827;DHT22;11580;52.562;13.418;2023-06-24T07:57:20;24.20;48.70
22827;DHT22;11580;52.562;13.418;2023-06-24T07:59:48;24.20;49.20
22827;DHT22;11580;52.562;13.418;2023-06-24T08:02:15;24.20;49.70
22827;DHT22;11580;52.562;13.418;2023-06-24T08:04:42;24.30;49.70
22827;DHT22;11580;52.562;13.418;2023-06-24T08:07:09;24.40;49.40
22827;DHT22;11580;52.562;13.418;2023-06-24T08:09:36;24.50;49.80
22827;DHT22;11580;52.562;13.418;2023-06-24T08:12:06;24.70;50.00
22827;DHT22;11580;52.562;13.418;2023-06-24T08:14:33;24.80;48.40
22827;DHT22;11580;52.562;13.418;2023-06-24T08:17:01;25.00;49.80
22827;DHT22;11580;52.562;13.418;2023-06-24T08:19:29;25.20;49.20
22827;DHT22;11580;52.562;13.418;2023-06-24T08:21:56;25.30;49.10
22827;DHT22;11580;52.562;13.418;2023-06-24T08:24:23;25.40;47.50
22827;DHT22;11580;52.562;13.418;2023-06-24T08:26:50;25.40;47.40
22827;DHT22;11580;52.562;13.418;2023-06-24T08:29:20;25.40;47.40
22827;DHT22;11580;52.562;13.418;2023-06-24T08:31:47;25.50;46.40
22827;DHT22;11580;52.562;13.418;2023-06-24T08:34:14;25.50;47.60
22827;DHT22;11580;52.562;13.418;2023-06-24T08:36:41;25.50;46.60
22827;DHT22;11580;52.562;13.418;2023-06-24T08:39:08;25.50;46.30
22827;DHT22;11580;52.562;13.418;2023-06-24T08:41:35;25.60;46.10
22827;DHT22;11580;52.562;13.418;2023-06-24T08:44:03;25.60;46.00
22827;DHT22;11580;52.562;13.418;2023-06-24T08:46:32;25.60;46.10
22827;DHT22;11580;52.562;13.418;2023-06-24T08:49:06;25.70;44.70
22827;DHT22;11580;52.562;13.418;2023-06-24T08:51:42;25.80;44.70
22827;DHT22;11580;52.562;13.418;2023-06-24T08:54:14;25.80;43.90
22827;DHT22;11580;52.562;13.418;2023-06-24T08:56:43;25.80;42.20
22827;DHT22;11580;52.562;13.418;2023-06-24T08:59:10;25.80;44.60
22827;DHT22;11580;52.562;13.418;2023-06-24T09:01:39;25.70;44.90
22827;DHT22;11580;52.562;13.418;2023-06-24T09:04:06;25.70;43.20
22827;DHT22;11580;52.562;13.418;2023-06-24T09:06:33;25.70;44.40
22827;DHT22;11580;52.562;13.418;2023-06-24T09:09:00;25.70;43.90
22827;DHT22;11580;52.562;13.418;2023-06-24T09:11:28;25.70;43.40
22827;DHT22;11580;52.562;13.418;2023-06-24T09:13:57;25.60;43.60
22827;DHT22;11580;52.562;13.418;2023-06-24T09:16:26;25.60;43.50
22827;DHT22;11580;52.562;13.418;2023-06-24T09:18:56;25.60;43.10
22827;DHT22;11580;52.562;13.418;2023-06-24T09:21:24;25.60;42.50
22827;DHT22;11580;52.562;13.418;2023-06-24T09:23:53;25.60;43.80
22827;DHT22;11580;52.562;13.418;2023-06-24T09:26:23;25.60;42.90
22827;DHT22;11580;52.562;13.418;2023-06-24T09:28:51;25.60;42.00
22827;DHT22;11580;52.562;13.418;2023-06-24T09:31:18;25.60;42.90
22827;DHT22;11580;52.562;13.418;2023-06-24T09:33:46;25.70;43.30
22827;DHT22;11580;52.562;13.418;2023-06-24T09:36:15;25.70;42.60
22827;DHT22;11580;52.562;13.418;2023-06-24T09:38:43;25.60;40.40
22827;DHT22;11580;52.562;13.418;2023-06-24T09:41:11;25.60;42.00
22827;DHT22;11580;52.562;13.418;2023-06-24T09:43:38;25.50;40.40
22827;DHT22;11580;52.562;13.418;2023-06-24T09:46:06;25.50;40.20
22827;DHT22;11580;52.562;13.418;2023-06-24T09:48:34;25.40;41.00
22827;DHT22;11580;52.562;13.418;2023-06-24T09:51:03;25.30;41.10
22827;DHT22;11580;52.562;13.418;2023-06-24T09:53:33;25.30;40.10
22827;DHT22;11580;52.562;13.418;2023-06-24T09:56:03;25.20;39.30
22827;DHT22;11580;52.562;13.418;2023-06-24T09:58:32;25.20;40.50
22827;DHT22;11580;52.562;13.418;2023-06-24T10:01:04;25.10;40.70
22827;DHT22;11580;52.562;13.418;2023-06-24T10:03:33;25.00;40.80
22827;DHT22;11580;52.562;13.418;2023-06-24T10:06:02;25.00;39.70
22827;DHT22;11580;52.562;13.418;2023-06-24T10:08:32;25.00;40.20
22827;DHT22;11580;52.562;13.418;2023-06-24T10:11:00;25.00;39.70
22827;DHT22;11580;52.562;13.418;2023-06-24T10:13:28;25.00;40.80
22827;DHT22;11580;52.562;13.418;2023-06-24T10:15:56;24.90;39.40
22827;DHT22;11580;52.562;13.418;2023-06-24T10:18:43;24.90;39.50
22827;DHT22;11580;52.562;13.418;2023-06-24T10:21:11;24.90;38.70
22827;DHT22;11580;52.562;13.418;2023-06-24T10:23:41;24.90;40.30
22827;DHT22;11580;52.562;13.418;2023-06-24T10:26:25;24.90;39.40
22827;DHT22;11580;52.562;13.418;2023-06-24T10:29:12;25.00;37.60
22827;DHT22;11580;52.562;13.418;2023-06-24T10:31:52;24.90;39.10
22827;DHT22;11580;52.562;13.418;2023-06-24T10:34:27;24.90;37.50
22827;DHT22;11580;52.562;13.418;2023-06-24T10:36:56;25.00;37.70
22827;DHT22;11580;52.562;13.418;2023-06-24T10:39:40;24.90;39.20
22827;DHT22;11580;52.562;13.418;2023-06-24T10:42:36;24.90;35.90
22827;DHT22;11580;52.562;13.418;2023-06-24T10:45:16;24.90;37.50
22827;DHT22;11580;52.562;13.418;2023-06-24T10:47:45;24.90;36.60
22827;DHT22;11580;52.562;13.418;2023-06-24T10:50:15;24.90;37.80
22827;DHT22;11580;52.562;13.418;2023-06-24T10:52:46;24.90;37.90
22827;DHT22;11580;52.562;13.418;2023-06-24T10:55:16;24.90;38.40
22827;DHT22;11580;52.562;13.418;2023-06-24T10:57:45;25.00;38.50
22827;DHT22;11580;52.562;13.418;2023-06-24T11:00:13;25.00;39.30
22827;DHT22;11580;52.562;13.418;2023-06-24T11:02:41;25.10;39.10
22827;DHT22;11580;52.562;13.418;2023-06-24T11:05:09;25.10;39.00
22827;DHT22;11580;52.562;13.418;2023-06-24T11:07:37;25.20;37.80
22827;DHT22;11580;52.562;13.418;2023-06-24T11:10:06;25.20;38.10
22827;DHT22;11580;52.562;13.418;2023-06-24T11:12:37;25.20;38.00
22827;DHT22;11580;52.562;13.418;2023-06-24T11:15:07;25.30;36.80
22827;DHT22;11580;52.562;13.418;2023-06-24T11:17:36;25.30;37.20
22827;DHT22;11580;52.562;13.418;2023-06-24T11:20:07;25.30;37.90
22827;DHT22;11580;52.562;13.418;2023-06-24T11:22:35;25.30;36.40
22827;DHT22;11580;52.562;13.418;2023-06-24T11:25:03;25.40;38.80
22827;DHT22;11580;52.562;13.418;2023-06-24T11:27:31;25.40;37.20
22827;DHT22;11580;52.562;13.418;2023-06-24T11:30:00;25.40;37.20
22827;DHT22;11580;52.562;13.418;2023-06-24T11:32:35;25.50;36.30
22827;DHT22;11580;52.562;13.418;2023-06-24T11:35:04;25.50;35.10
22827;DHT22;11580;52.562;13.418;2023-06-24T11:37:32;25.50;36.20
22827;DHT22;11580;52.562;13.418;2023-06-24T11:40:04;25.60;36.80
22827;DHT22;11580;52.562;13.418;2023-06-24T11:42:35;25.60;35.70
22827;DHT22;11580;52.562;13.418;2023-06-24T11:45:05;25.60;36.20
22827;DHT22;11580;52.562;13.418;2023-06-24T11:47:35;25.70;34.60
22827;DHT22;11580;52.562;13.418;2023-06-24T11:50:06;25.70;34.40
22827;DHT22;11580;52.562;13.418;2023-06-24T11:52:41;25.80;33.40
22827;DHT22;11580;52.562;13.418;2023-06-24T11:55:16;25.80;30.60
22827;DHT22;11580;52.562;13.418;2023-06-24T11:57:48;25.90;31.80
22827;DHT22;11580;52.562;13.418;2023-06-24T12:00:25;25.90;32.00
22827;DHT22;11580;52.562;13.418;2023-06-24T12:02:54;25.90;31.30
22827;DHT22;11580;52.562;13.418;2023-06-24T12:05:27;25.90;32.80
22827;DHT22;11580;52.562;13.418;2023-06-24T12:07:56;25.90;30.70
22827;DHT22;11580;52.562;13.418;2023-06-24T12:10:24;25.90;31.20
22827;DHT22;11580;52.562;13.418;2023-06-24T12:12:52;26.00;30.80
22827;DHT22;11580;52.562;13.418;2023-06-24T12:15:19;26.00;30.00
22827;DHT22;11580;52.562;13.418;2023-06-24T12:17:48;26.10;29.90
22827;DHT22;11580;52.562;13.418;2023-06-24T12:20:15;26.10;29.30
22827;DHT22;11580;52.562;13.418;2023-06-24T12:22:44;26.10;29.20
22827;DHT22;11580;52.562;13.418;2023-06-24T12:25:11;26.10;30.00
22827;DHT22;11580;52.562;13.418;2023-06-24T12:27:39;26.20;29.70
22827;DHT22;11580;52.562;13.418;2023-06-24T12:30:08;26.20;29.30
22827;DHT22;11580;52.562;13.418;2023-06-24T12:32:36;26.20;28.40
22827;DHT22;11580;52.562;13.418;2023-06-24T12:35:05;26.20;28.70
22827;DHT22;11580;52.562;13.418;2023-06-24T12:37:34;26.20;28.20
22827;DHT22;11580;52.562;13.418;2023-06-24T12:40:02;26.30;29.30
22827;DHT22;11580;52.562;13.418;2023-06-24T12:42:30;26.30;29.50
22827;DHT22;11580;52.562;13.418;2023-06-24T12:44:58;26.40;29.40
22827;DHT22;11580;52.562;13.418;2023-06-24T12:47:26;26.40;28.90
22827;DHT22;11580;52.562;13.418;2023-06-24T12:49:53;26.40;29.40
22827;DHT22;11580;52.562;13.418;2023-06-24T12:52:22;26.50;29.50
22827;DHT22;11580;52.562;13.418;2023-06-24T12:54:49;26.50;29.70
22827;DHT22;11580;52.562;13.418;2023-06-24T12:57:16;26.60;29.40
22827;DHT22;11580;52.562;13.418;2023-06-24T12:59:43;26.70;29.50
22827;DHT22;11580;52.562;13.418;2023-06-24T13:02:10;26.70;28.80
22827;DHT22;11580;52.562;13.418;2023-06-24T13:04:37;26.70;29.00
22827;DHT22;11580;52.562;13.418;2023-06-24T13:07:05;26.80;29.10
22827;DHT22;11580;52.562;13.418;2023-06-24T13:09:34;26.80;28.40
22827;DHT22;11580;52.562;13.418;2023-06-24T13:12:01;26.80;28.60
22827;DHT22;11580;52.562;13.418;2023-06-24T13:14:28;26.90;29.30
22827;DHT22;11580;52.562;13.418;2023-06-24T13:16:55;26.90;29.20
22827;DHT22;11580;52.562;13.418;2023-06-24T13:19:23;26.90;29.60
22827;DHT22;11580;52.562;13.418;2023-06-24T13:21:51;26.90;29.60
22827;DHT22;11580;52.562;13.418;2023-06-24T13:24:18;26.90;29.20
22827;DHT22;11580;52.562;13.418;2023-06-24T13:26:46;27.00;28.70
22827;DHT22;11580;52.562;13.418;2023-06-24T13:29:13;27.00;28.40
22827;DHT22;11580;52.562;13.418;2023-06-24T13:31:40;27.00;28.70
22827;DHT22;11580;52.562;13.418;2023-06-24T13:34:08;27.00;28.60
22827;DHT22;11580;52.562;13.418;2023-06-24T13:36:36;27.00;28.80
22827;DHT22;11580;52.562;13.418;2023-06-24T13:39:05;27.10;28.10
22827;DHT22;11580;52.562;13.418;2023-06-24T13:41:34;27.10;28.40
22827;DHT22;11580;52.562;13.418;2023-06-24T13:44:03;27.10;29.20
22827;DHT22;11580;52.562;13.418;2023-06-24T13:46:32;27.20;28.50
22827;DHT22;11580;52.562;13.418;2023-06-24T13:49:00;27.20;28.10
22827;DHT22;11580;52.562;13.418;2023-06-24T13:51:27;27.20;28.20
22827;DHT22;11580;52.562;13.418;2023-06-24T13:53:55;27.30;28.70
22827;DHT22;11580;52.562;13.418;2023-06-24T13:56:23;27.30;28.70
22827;DHT22;11580;52.562;13.418;2023-06-24T13:58:52;27.30;28.20
22827;DHT22;11580;52.562;13.418;2023-06-24T14:01:22;27.40;27.90
22827;DHT22;11580;52.562;13.418;2023-06-24T14:03:49;27.40;27.70
22827;DHT22;11580;52.562;13.418;2023-06-24T14:06:18;27.40;28.20
22827;DHT22;11580;52.562;13.418;2023-06-24T14:08:46;27.40;27.40
22827;DHT22;11580;52.562;13.418;2023-06-24T14:11:14;27.50;27.40
22827;DHT22;11580;52.562;13.418;2023-06-24T14:13:42;27.50;27.40
22827;DHT22;11580;52.562;13.418;2023-06-24T14:16:10;27.50;27.80
22827;DHT22;11580;52.562;13.418;2023-06-24T14:18:39;27.50;28.00
22827;DHT22;11580;52.562;13.418;2023-06-24T14:21:07;27.60;27.70
22827;DHT22;11580;52.562;13.418;2023-06-24T14:23:35;27.60;28.30
22827;DHT22;11580;52.562;13.418;2023-06-24T14:26:02;27.70;27.60
22827;DHT22;11580;52.562;13.418;2023-06-24T14:28:30;27.70;27.90
22827;DHT22;11580;52.562;13.418;2023-06-24T14:30:57;27.80;28.00
22827;DHT22;11580;52.562;13.418;2023-06-24T14:33:24;27.60;28.00
22827;DHT22;11580;52.562;13.418;2023-06-24T14:35:53;27.90;27.70
22827;DHT22;11580;52.562;13.418;2023-06-24T14:38:20;27.90;27.10
22827;DHT22;11580;52.562;13.418;2023-06-24T14:40:47;27.90;26.90
22827;DHT22;11580;52.562;13.418;2023-06-24T14:43:15;28.00;27.20
22827;DHT22;11580;52.562;13.418;2023-06-24T14:45:42;28.00;27.00
22827;DHT22;11580;52.562;13.418;2023-06-24T14:48:09;28.10;26.80
22827;DHT22;11580;52.562;13.418;2023-06-24T14:50:36;28.10;26.70
22827;DHT22;11580;52.562;13.418;2023-06-24T14:53:05;28.10;26.60
22827;DHT22;11580;52.562;13.418;2023-06-24T14:55:33;28.20;26.50
22827;DHT22;11580;52.562;13.418;2023-06-24T14:58:00;28.20;26.50
22827;DHT22;11580;52.562;13.418;2023-06-24T15:00:27;28.20;26.70
22827;DHT22;11580;52.562;13.418;2023-06-24T15:02:54;28.30;26.80
22827;DHT22;11580;52.562;13.418;2023-06-24T15:05:21;28.30;27.00
22827;DHT22;11580;52.562;13.418;2023-06-24T15:07:49;28.30;27.10
22827;DHT22;11580;52.562;13.418;2023-06-24T15:10:17;28.40;26.90
22827;DHT22;11580;52.562;13.418;2023-06-24T15:12:44;28.40;26.00
22827;DHT22;11580;52.562;13.418;2023-06-24T15:15:11;28.40;26.30
22827;DHT22;11580;52.562;13.418;2023-06-24T15:17:40;28.50;26.80
22827;DHT22;11580;52.562;13.418;2023-06-24T15:20:11;28.50;27.10
22827;DHT22;11580;52.562;13.418;2023-06-24T15:22:40;28.60;27.40
22827;DHT22;11580;52.562;13.418;2023-06-24T15:25:08;28.70;27.60
22827;DHT22;11580;52.562;13.418;2023-06-24T15:27:36;28.90;27.40